Terminal Aerodrome Forecast
Issued by NWS

Home | Current Version | Previous Version | Text Only | Print | Product List | Glossary On
Versions: 1 2 3 4 5 6 7 8 9 10 11 12 13 14 15 16 17 18 19 20 21 22 23 24 25 26 27
000
FTUS46 KOTX 241801 AAA
TAFPUW
TAF AMD
KPUW 241801Z 2418/2518 28005KT P6SM VCSH BKN006 OVC011
      TEMPO 2420/2424 4SM -SN BR OVC002
     FM250000 26005KT 1SM BR OVC003
     FM250600 29004KT 1SM BR VCSH OVC002
     FM251400 VRB02KT 4SM BR OVC003=

USA.gov is the U.S. government's official web portal to all federal, state and local government web resources and services.